sensor_id;sensor_type;location;lat;lon;timestamp;P1;durP1;ratioP1;P2;durP2;ratioP2
1591;SDS011;789;51.612;7.510;2023-03-14T00:00:08;4.97;;;2.57;;
1591;SDS011;789;51.612;7.510;2023-03-14T00:02:37;9.37;;;3.13;;
1591;SDS011;789;51.612;7.510;2023-03-14T00:05:05;7.80;;;2.50;;
1591;SDS011;789;51.612;7.510;2023-03-14T00:07:34;11.07;;;2.40;;
1591;SDS011;789;51.612;7.510;2023-03-14T00:10:02;7.77;;;2.30;;
1591;SDS011;789;51.612;7.510;2023-03-14T00:12:30;3.30;;;2.10;;
1591;SDS011;789;51.612;7.510;2023-03-14T00:14:57;4.53;;;2.00;;
1591;SDS011;789;51.612;7.510;2023-03-14T00:17:25;6.83;;;2.87;;
1591;SDS011;789;51.612;7.510;2023-03-14T00:19:52;10.80;;;2.50;;
1591;SDS011;789;51.612;7.510;2023-03-14T00:22:19;7.10;;;2.30;;
1591;SDS011;789;51.612;7.510;2023-03-14T00:24:47;6.10;;;2.07;;
1591;SDS011;789;51.612;7.510;2023-03-14T00:27:14;6.10;;;2.50;;
1591;SDS011;789;51.612;7.510;2023-03-14T00:29:42;5.20;;;2.30;;
1591;SDS011;789;51.612;7.510;2023-03-14T00:32:09;4.60;;;2.33;;
1591;SDS011;789;51.612;7.510;2023-03-14T00:34:35;8.17;;;2.60;;
1591;SDS011;789;51.612;7.510;2023-03-14T00:37:04;5.70;;;2.03;;
1591;SDS011;789;51.612;7.510;2023-03-14T00:39:31;6.87;;;2.40;;
1591;SDS011;789;51.612;7.510;2023-03-14T00:41:59;7.70;;;2.20;;
1591;SDS011;789;51.612;7.510;2023-03-14T00:44:26;7.23;;;2.70;;
1591;SDS011;789;51.612;7.510;2023-03-14T00:46:53;6.33;;;3.20;;
1591;SDS011;789;51.612;7.510;2023-03-14T00:49:20;13.37;;;4.13;;
1591;SDS011;789;51.612;7.510;2023-03-14T00:51:47;5.07;;;2.70;;
1591;SDS011;789;51.612;7.510;2023-03-14T00:54:13;7.40;;;2.57;;
1591;SDS011;789;51.612;7.510;2023-03-14T00:56:40;6.63;;;2.20;;
1591;SDS011;789;51.612;7.510;2023-03-14T00:59:08;11.10;;;3.97;;
1591;SDS011;789;51.612;7.510;2023-03-14T01:01:35;7.90;;;2.90;;
1591;SDS011;789;51.612;7.510;2023-03-14T01:04:02;7.50;;;2.87;;
1591;SDS011;789;51.612;7.510;2023-03-14T01:06:29;6.23;;;2.30;;
1591;SDS011;789;51.612;7.510;2023-03-14T01:08:56;7.17;;;2.70;;
1591;SDS011;789;51.612;7.510;2023-03-14T01:11:24;9.87;;;2.20;;
1591;SDS011;789;51.612;7.510;2023-03-14T01:13:52;6.07;;;2.10;;
1591;SDS011;789;51.612;7.510;2023-03-14T01:16:22;5.87;;;2.47;;
1591;SDS011;789;51.612;7.510;2023-03-14T01:18:50;4.80;;;2.30;;
1591;SDS011;789;51.612;7.510;2023-03-14T01:21:17;5.97;;;2.13;;
1591;SDS011;789;51.612;7.510;2023-03-14T01:23:47;3.90;;;1.90;;
1591;SDS011;789;51.612;7.510;2023-03-14T01:26:15;6.90;;;2.23;;
1591;SDS011;789;51.612;7.510;2023-03-14T01:28:44;5.80;;;1.60;;
1591;SDS011;789;51.612;7.510;2023-03-14T01:31:12;7.70;;;1.73;;
1591;SDS011;789;51.612;7.510;2023-03-14T01:33:40;4.50;;;1.50;;
1591;SDS011;789;51.612;7.510;2023-03-14T01:36:08;2.40;;;0.90;;
1591;SDS011;789;51.612;7.510;2023-03-14T01:38:36;2.57;;;1.10;;
1591;SDS011;789;51.612;7.510;2023-03-14T01:41:05;1.43;;;0.80;;
1591;SDS011;789;51.612;7.510;2023-03-14T01:43:32;0.80;;;0.70;;
1591;SDS011;789;51.612;7.510;2023-03-14T01:49:05;2.00;;;0.70;;
1591;SDS011;789;51.612;7.510;2023-03-14T01:51:39;0.97;;;0.97;;
1591;SDS011;789;51.612;7.510;2023-03-14T01:54:12;3.03;;;1.00;;
1591;SDS011;789;51.612;7.510;2023-03-14T01:56:44;2.23;;;1.10;;
1591;SDS011;789;51.612;7.510;2023-03-14T01:59:16;2.50;;;1.30;;
1591;SDS011;789;51.612;7.510;2023-03-14T02:01:43;7.10;;;1.37;;
1591;SDS011;789;51.612;7.510;2023-03-14T02:04:17;2.50;;;1.33;;
1591;SDS011;789;51.612;7.510;2023-03-14T02:06:47;4.00;;;1.40;;
1591;SDS011;789;51.612;7.510;2023-03-14T02:09:17;4.20;;;1.47;;
1591;SDS011;789;51.612;7.510;2023-03-14T02:11:44;6.07;;;2.60;;
1591;SDS011;789;51.612;7.510;2023-03-14T02:14:17;4.10;;;1.30;;
1591;SDS011;789;51.612;7.510;2023-03-14T02:16:51;6.73;;;1.50;;
1591;SDS011;789;51.612;7.510;2023-03-14T02:19:22;4.80;;;1.70;;
1591;SDS011;789;51.612;7.510;2023-03-14T02:21:57;9.33;;;1.67;;
1591;SDS011;789;51.612;7.510;2023-03-14T02:24:30;2.80;;;1.43;;
1591;SDS011;789;51.612;7.510;2023-03-14T02:27:10;6.30;;;1.77;;
1591;SDS011;789;51.612;7.510;2023-03-14T02:29:40;8.57;;;2.03;;
1591;SDS011;789;51.612;7.510;2023-03-14T02:32:13;5.30;;;1.60;;
1591;SDS011;789;51.612;7.510;2023-03-14T02:34:42;4.43;;;1.30;;
1591;SDS011;789;51.612;7.510;2023-03-14T02:37:12;7.20;;;1.87;;
1591;SDS011;789;51.612;7.510;2023-03-14T02:39:41;4.20;;;1.50;;
1591;SDS011;789;51.612;7.510;2023-03-14T02:42:12;6.33;;;1.50;;
1591;SDS011;789;51.612;7.510;2023-03-14T02:44:47;4.07;;;1.53;;
1591;SDS011;789;51.612;7.510;2023-03-14T02:47:18;4.83;;;1.43;;
1591;SDS011;789;51.612;7.510;2023-03-14T02:49:54;5.13;;;1.50;;
1591;SDS011;789;51.612;7.510;2023-03-14T02:52:26;6.93;;;1.80;;
1591;SDS011;789;51.612;7.510;2023-03-14T02:54:53;5.20;;;2.10;;
1591;SDS011;789;51.612;7.510;2023-03-14T02:57:21;6.47;;;1.60;;
1591;SDS011;789;51.612;7.510;2023-03-14T02:59:48;2.33;;;1.33;;
1591;SDS011;789;51.612;7.510;2023-03-14T03:02:15;5.73;;;1.57;;
1591;SDS011;789;51.612;7.510;2023-03-14T03:04:42;6.60;;;1.70;;
1591;SDS011;789;51.612;7.510;2023-03-14T03:07:08;6.30;;;2.03;;
1591;SDS011;789;51.612;7.510;2023-03-14T03:09:35;10.00;;;2.33;;
1591;SDS011;789;51.612;7.510;2023-03-14T03:12:02;9.57;;;2.23;;
1591;SDS011;789;51.612;7.510;2023-03-14T03:14:30;8.27;;;1.90;;
1591;SDS011;789;51.612;7.510;2023-03-14T03:16:57;6.40;;;1.60;;
1591;SDS011;789;51.612;7.510;2023-03-14T03:19:24;11.47;;;2.33;;
1591;SDS011;789;51.612;7.510;2023-03-14T03:21:51;6.30;;;2.20;;
1591;SDS011;789;51.612;7.510;2023-03-14T03:24:17;3.70;;;1.47;;
1591;SDS011;789;51.612;7.510;2023-03-14T03:26:44;4.20;;;1.80;;
1591;SDS011;789;51.612;7.510;2023-03-14T03:29:11;6.80;;;1.93;;
1591;SDS011;789;51.612;7.510;2023-03-14T03:31:39;7.70;;;1.80;;
1591;SDS011;789;51.612;7.510;2023-03-14T03:34:06;7.63;;;1.77;;
1591;SDS011;789;51.612;7.510;2023-03-14T03:36:33;8.27;;;2.50;;
1591;SDS011;789;51.612;7.510;2023-03-14T03:39:00;10.83;;;1.70;;
1591;SDS011;789;51.612;7.510;2023-03-14T03:41:26;3.20;;;1.70;;
1591;SDS011;789;51.612;7.510;2023-03-14T03:43:53;5.00;;;1.70;;
1591;SDS011;789;51.612;7.510;2023-03-14T03:46:20;7.83;;;2.00;;
1591;SDS011;789;51.612;7.510;2023-03-14T03:48:49;5.80;;;2.10;;
1591;SDS011;789;51.612;7.510;2023-03-14T03:51:20;5.30;;;2.20;;
1591;SDS011;789;51.612;7.510;2023-03-14T03:53:47;6.27;;;2.03;;
1591;SDS011;789;51.612;7.510;2023-03-14T03:56:14;10.03;;;1.90;;
1591;SDS011;789;51.612;7.510;2023-03-14T03:58:41;7.57;;;1.50;;
1591;SDS011;789;51.612;7.510;2023-03-14T04:01:08;11.13;;;1.90;;
1591;SDS011;789;51.612;7.510;2023-03-14T04:03:35;9.30;;;2.53;;
1591;SDS011;789;51.612;7.510;2023-03-14T04:06:06;8.67;;;1.70;;
1591;SDS011;789;51.612;7.510;2023-03-14T04:08:34;7.60;;;2.00;;
1591;SDS011;789;51.612;7.510;2023-03-14T04:11:01;5.60;;;2.00;;
1591;SDS011;789;51.612;7.510;2023-03-14T04:13:29;7.80;;;2.70;;
1591;SDS011;789;51.612;7.510;2023-03-14T04:15:56;5.57;;;1.60;;
1591;SDS011;789;51.612;7.510;2023-03-14T04:18:23;3.07;;;1.33;;
1591;SDS011;789;51.612;7.510;2023-03-14T04:20:50;7.33;;;2.23;;
1591;SDS011;789;51.612;7.510;2023-03-14T04:23:19;4.40;;;1.83;;
1591;SDS011;789;51.612;7.510;2023-03-14T04:25:48;7.10;;;2.20;;
1591;SDS011;789;51.612;7.510;2023-03-14T04:28:15;7.70;;;1.97;;
1591;SDS011;789;51.612;7.510;2023-03-14T04:30:42;6.50;;;1.73;;
1591;SDS011;789;51.612;7.510;2023-03-14T04:33:09;4.23;;;1.73;;
1591;SDS011;789;51.612;7.510;2023-03-14T04:35:37;5.70;;;1.90;;
1591;SDS011;789;51.612;7.510;2023-03-14T04:38:04;5.33;;;1.77;;
1591;SDS011;789;51.612;7.510;2023-03-14T04:40:32;4.80;;;1.53;;
1591;SDS011;789;51.612;7.510;2023-03-14T04:42:59;3.27;;;1.67;;
1591;SDS011;789;51.612;7.510;2023-03-14T04:45:26;2.20;;;1.30;;
1591;SDS011;789;51.612;7.510;2023-03-14T04:47:52;4.70;;;1.30;;
1591;SDS011;789;51.612;7.510;2023-03-14T04:50:19;3.43;;;1.30;;
1591;SDS011;789;51.612;7.510;2023-03-14T04:52:46;2.67;;;1.20;;
1591;SDS011;789;51.612;7.510;2023-03-14T04:55:13;5.33;;;1.90;;
1591;SDS011;789;51.612;7.510;2023-03-14T04:57:41;2.30;;;0.83;;
1591;SDS011;789;51.612;7.510;2023-03-14T05:00:08;1.83;;;0.80;;
1591;SDS011;789;51.612;7.510;2023-03-14T05:02:36;2.10;;;0.90;;
1591;SDS011;789;51.612;7.510;2023-03-14T05:05:03;4.40;;;1.20;;
1591;SDS011;789;51.612;7.510;2023-03-14T05:07:30;1.77;;;0.93;;
1591;SDS011;789;51.612;7.510;2023-03-14T05:09:57;4.33;;;0.80;;
1591;SDS011;789;51.612;7.510;2023-03-14T05:12:23;2.00;;;0.97;;
1591;SDS011;789;51.612;7.510;2023-03-14T05:14:51;1.70;;;0.80;;
1591;SDS011;789;51.612;7.510;2023-03-14T05:17:18;1.77;;;0.70;;
1591;SDS011;789;51.612;7.510;2023-03-14T05:19:45;0.90;;;0.80;;
1591;SDS011;789;51.612;7.510;2023-03-14T05:22:12;4.27;;;0.80;;
1591;SDS011;789;51.612;7.510;2023-03-14T05:24:38;2.93;;;0.70;;
1591;SDS011;789;51.612;7.510;2023-03-14T05:27:05;0.90;;;0.70;;
1591;SDS011;789;51.612;7.510;2023-03-14T05:29:32;2.30;;;1.00;;
1591;SDS011;789;51.612;7.510;2023-03-14T05:32:00;1.20;;;0.70;;
1591;SDS011;789;51.612;7.510;2023-03-14T05:34:27;1.47;;;0.80;;
1591;SDS011;789;51.612;7.510;2023-03-14T05:36:54;1.03;;;0.80;;
1591;SDS011;789;51.612;7.510;2023-03-14T05:39:21;2.70;;;0.70;;
1591;SDS011;789;51.612;7.510;2023-03-14T05:41:48;1.60;;;0.70;;
1591;SDS011;789;51.612;7.510;2023-03-14T05:44:15;0.70;;;0.50;;
1591;SDS011;789;51.612;7.510;2023-03-14T05:46:42;1.67;;;0.97;;
1591;SDS011;789;51.612;7.510;2023-03-14T05:49:10;1.30;;;0.70;;
1591;SDS011;789;51.612;7.510;2023-03-14T05:51:45;1.57;;;0.70;;
1591;SDS011;789;51.612;7.510;2023-03-14T05:54:12;5.43;;;1.20;;
1591;SDS011;789;51.612;7.510;2023-03-14T05:56:40;5.30;;;0.80;;
1591;SDS011;789;51.612;7.510;2023-03-14T05:59:07;1.30;;;0.60;;
1591;SDS011;789;51.612;7.510;2023-03-14T06:01:34;1.57;;;0.80;;
1591;SDS011;789;51.612;7.510;2023-03-14T06:04:01;2.30;;;0.53;;
1591;SDS011;789;51.612;7.510;2023-03-14T06:06:29;2.13;;;0.73;;
1591;SDS011;789;51.612;7.510;2023-03-14T06:08:56;2.83;;;0.70;;
1591;SDS011;789;51.612;7.510;2023-03-14T06:11:23;1.97;;;0.90;;
1591;SDS011;789;51.612;7.510;2023-03-14T06:13:50;1.07;;;0.80;;
1591;SDS011;789;51.612;7.510;2023-03-14T06:16:17;3.80;;;2.50;;
1591;SDS011;789;51.612;7.510;2023-03-14T06:18:44;2.43;;;1.10;;
1591;SDS011;789;51.612;7.510;2023-03-14T06:21:14;1.57;;;1.00;;
1591;SDS011;789;51.612;7.510;2023-03-14T06:23:42;2.60;;;1.20;;
1591;SDS011;789;51.612;7.510;2023-03-14T06:26:09;3.20;;;1.10;;
1591;SDS011;789;51.612;7.510;2023-03-14T06:28:36;1.20;;;0.70;;
1591;SDS011;789;51.612;7.510;2023-03-14T06:31:03;2.40;;;0.80;;
1591;SDS011;789;51.612;7.510;2023-03-14T06:33:31;2.43;;;1.03;;
1591;SDS011;789;51.612;7.510;2023-03-14T06:35:58;1.13;;;0.90;;
1591;SDS011;789;51.612;7.510;2023-03-14T06:38:25;2.30;;;1.93;;
1591;SDS011;789;51.612;7.510;2023-03-14T06:40:53;5.03;;;2.57;;
1591;SDS011;789;51.612;7.510;2023-03-14T06:43:20;4.53;;;2.63;;
1591;SDS011;789;51.612;7.510;2023-03-14T06:45:46;3.13;;;1.87;;
1591;SDS011;789;51.612;7.510;2023-03-14T06:48:13;3.60;;;2.23;;
1591;SDS011;789;51.612;7.510;2023-03-14T06:50:40;4.00;;;2.50;;
1591;SDS011;789;51.612;7.510;2023-03-14T06:53:08;5.20;;;2.67;;
1591;SDS011;789;51.612;7.510;2023-03-14T06:55:35;6.27;;;2.50;;
1591;SDS011;789;51.612;7.510;2023-03-14T06:58:03;2.70;;;2.20;;
1591;SDS011;789;51.612;7.510;2023-03-14T07:00:32;5.30;;;2.37;;
1591;SDS011;789;51.612;7.510;2023-03-14T07:03:00;2.87;;;2.23;;
1591;SDS011;789;51.612;7.510;2023-03-14T07:05:27;7.50;;;2.67;;
1591;SDS011;789;51.612;7.510;2023-03-14T07:07:53;2.80;;;2.13;;
1591;SDS011;789;51.612;7.510;2023-03-14T07:10:20;2.10;;;1.90;;
1591;SDS011;789;51.612;7.510;2023-03-14T07:12:47;2.10;;;1.50;;
1591;SDS011;789;51.612;7.510;2023-03-14T07:15:16;1.83;;;1.60;;
1591;SDS011;789;51.612;7.510;2023-03-14T07:17:43;5.03;;;1.93;;
1591;SDS011;789;51.612;7.510;2023-03-14T07:20:13;6.17;;;1.80;;
1591;SDS011;789;51.612;7.510;2023-03-14T07:22:39;2.10;;;1.87;;
1591;SDS011;789;51.612;7.510;2023-03-14T07:25:07;2.13;;;1.93;;
1591;SDS011;789;51.612;7.510;2023-03-14T07:27:34;4.00;;;1.33;;
1591;SDS011;789;51.612;7.510;2023-03-14T07:30:01;3.23;;;1.73;;
1591;SDS011;789;51.612;7.510;2023-03-14T07:32:30;4.27;;;1.70;;
1591;SDS011;789;51.612;7.510;2023-03-14T07:34:56;3.07;;;1.80;;
1591;SDS011;789;51.612;7.510;2023-03-14T07:37:23;3.47;;;1.57;;
1591;SDS011;789;51.612;7.510;2023-03-14T07:39:50;2.67;;;1.43;;
1591;SDS011;789;51.612;7.510;2023-03-14T07:42:17;6.90;;;1.70;;
1591;SDS011;789;51.612;7.510;2023-03-14T07:44:43;2.10;;;1.63;;
1591;SDS011;789;51.612;7.510;2023-03-14T07:47:10;1.70;;;1.60;;
1591;SDS011;789;51.612;7.510;2023-03-14T07:49:39;1.80;;;1.67;;
1591;SDS011;789;51.612;7.510;2023-03-14T07:52:05;1.47;;;1.30;;
1591;SDS011;789;51.612;7.510;2023-03-14T07:54:34;2.30;;;1.40;;
1591;SDS011;789;51.612;7.510;2023-03-14T07:57:01;2.83;;;1.80;;
1591;SDS011;789;51.612;7.510;2023-03-14T07:59:28;2.03;;;1.50;;
1591;SDS011;789;51.612;7.510;2023-03-14T08:01:55;1.53;;;1.43;;
1591;SDS011;789;51.612;7.510;2023-03-14T08:04:22;2.80;;;1.67;;
1591;SDS011;789;51.612;7.510;2023-03-14T08:06:50;1.47;;;1.37;;
1591;SDS011;789;51.612;7.510;2023-03-14T08:09:19;2.60;;;1.60;;
1591;SDS011;789;51.612;7.510;2023-03-14T08:11:45;5.83;;;1.40;;
1591;SDS011;789;51.612;7.510;2023-03-14T08:14:12;1.83;;;1.63;;
1591;SDS011;789;51.612;7.510;2023-03-14T08:16:39;1.60;;;1.50;;
1591;SDS011;789;51.612;7.510;2023-03-14T08:19:06;2.43;;;1.30;;
1591;SDS011;789;51.612;7.510;2023-03-14T08:21:33;4.30;;;1.60;;
1591;SDS011;789;51.612;7.510;2023-03-14T08:24:01;2.63;;;1.50;;
1591;SDS011;789;51.612;7.510;2023-03-14T08:26:28;2.10;;;1.70;;
1591;SDS011;789;51.612;7.510;2023-03-14T08:28:55;1.83;;;1.63;;
1591;SDS011;789;51.612;7.510;2023-03-14T08:31:22;1.97;;;1.67;;
1591;SDS011;789;51.612;7.510;2023-03-14T08:33:50;39.43;;;29.13;;
1591;SDS011;789;51.612;7.510;2023-03-14T08:36:18;3.50;;;2.33;;
1591;SDS011;789;51.612;7.510;2023-03-14T08:38:45;4.40;;;3.70;;
1591;SDS011;789;51.612;7.510;2023-03-14T08:41:13;2.20;;;2.00;;
1591;SDS011;789;51.612;7.510;2023-03-14T08:43:40;6.07;;;4.83;;
1591;SDS011;789;51.612;7.510;2023-03-14T08:46:07;2.43;;;2.23;;
1591;SDS011;789;51.612;7.510;2023-03-14T08:48:33;2.10;;;2.00;;
1591;SDS011;789;51.612;7.510;2023-03-14T08:51:04;2.07;;;1.97;;
1591;SDS011;789;51.612;7.510;2023-03-14T08:53:31;2.17;;;2.00;;
1591;SDS011;789;51.612;7.510;2023-03-14T08:55:58;3.33;;;2.17;;
1591;SDS011;789;51.612;7.510;2023-03-14T08:58:26;3.50;;;1.90;;
1591;SDS011;789;51.612;7.510;2023-03-14T09:00:54;4.80;;;2.00;;
1591;SDS011;789;51.612;7.510;2023-03-14T09:03:21;3.13;;;2.20;;
1591;SDS011;789;51.612;7.510;2023-03-14T09:05:48;2.70;;;2.50;;
1591;SDS011;789;51.612;7.510;2023-03-14T09:08:15;2.23;;;2.00;;
1591;SDS011;789;51.612;7.510;2023-03-14T09:10:42;2.00;;;1.90;;
1591;SDS011;789;51.612;7.510;2023-03-14T09:13:08;2.70;;;1.73;;
1591;SDS011;789;51.612;7.510;2023-03-14T09:15:37;2.47;;;2.03;;
1591;SDS011;789;51.612;7.510;2023-03-14T09:18:03;1.60;;;1.50;;
1591;SDS011;789;51.612;7.510;2023-03-14T09:20:33;1.90;;;1.57;;
1591;SDS011;789;51.612;7.510;2023-03-14T09:23:00;1.40;;;1.30;;
1591;SDS011;789;51.612;7.510;2023-03-14T09:25:27;1.80;;;1.60;;
1591;SDS011;789;51.612;7.510;2023-03-14T09:27:54;1.47;;;1.37;;
1591;SDS011;789;51.612;7.510;2023-03-14T09:30:21;1.87;;;1.77;;
1591;SDS011;789;51.612;7.510;2023-03-14T09:32:49;1.67;;;1.57;;
1591;SDS011;789;51.612;7.510;2023-03-14T09:35:18;2.03;;;1.93;;
1591;SDS011;789;51.612;7.510;2023-03-14T09:37:45;1.70;;;1.37;;
1591;SDS011;789;51.612;7.510;2023-03-14T09:40:13;1.50;;;1.40;;
1591;SDS011;789;51.612;7.510;2023-03-14T09:42:42;1.47;;;1.37;;
1591;SDS011;789;51.612;7.510;2023-03-14T09:45:11;1.20;;;1.17;;
1591;SDS011;789;51.612;7.510;2023-03-14T09:47:42;2.57;;;1.50;;
1591;SDS011;789;51.612;7.510;2023-03-14T09:50:14;3.80;;;1.87;;
1591;SDS011;789;51.612;7.510;2023-03-14T09:52:41;2.80;;;1.63;;
1591;SDS011;789;51.612;7.510;2023-03-14T09:55:12;2.60;;;1.87;;
1591;SDS011;789;51.612;7.510;2023-03-14T09:57:42;1.20;;;1.10;;
1591;SDS011;789;51.612;7.510;2023-03-14T10:00:14;3.47;;;1.90;;
1591;SDS011;789;51.612;7.510;2023-03-14T10:02:42;1.97;;;1.77;;
1591;SDS011;789;51.612;7.510;2023-03-14T10:05:15;3.50;;;2.70;;
1591;SDS011;789;51.612;7.510;2023-03-14T10:07:43;4.37;;;3.10;;
1591;SDS011;789;51.612;7.510;2023-03-14T10:10:11;5.43;;;4.20;;
1591;SDS011;789;51.612;7.510;2023-03-14T10:12:44;2.53;;;2.33;;
1591;SDS011;789;51.612;7.510;2023-03-14T10:15:14;7.37;;;3.50;;
1591;SDS011;789;51.612;7.510;2023-03-14T10:17:49;4.27;;;3.40;;
1591;SDS011;789;51.612;7.510;2023-03-14T10:20:29;7.63;;;4.97;;
1591;SDS011;789;51.612;7.510;2023-03-14T10:23:00;7.70;;;4.40;;
1591;SDS011;789;51.612;7.510;2023-03-14T10:25:30;1.23;;;1.10;;
1591;SDS011;789;51.612;7.510;2023-03-14T10:27:59;1.80;;;0.90;;
1591;SDS011;789;51.612;7.510;2023-03-14T10:30:27;0.60;;;0.60;;
1591;SDS011;789;51.612;7.510;2023-03-14T10:33:09;1.73;;;0.80;;
1591;SDS011;789;51.612;7.510;2023-03-14T10:35:41;0.77;;;0.70;;
1591;SDS011;789;51.612;7.510;2023-03-14T10:38:12;0.87;;;0.70;;
1591;SDS011;789;51.612;7.510;2023-03-14T10:40:40;0.90;;;0.80;;
1591;SDS011;789;51.612;7.510;2023-03-14T10:43:15;2.33;;;1.00;;
1591;SDS011;789;51.612;7.510;2023-03-14T10:45:47;1.30;;;1.00;;
1591;SDS011;789;51.612;7.510;2023-03-14T10:48:23;1.03;;;0.80;;
1591;SDS011;789;51.612;7.510;2023-03-14T10:50:57;0.97;;;0.77;;
1591;SDS011;789;51.612;7.510;2023-03-14T10:53:32;0.83;;;0.80;;
1591;SDS011;789;51.612;7.510;2023-03-14T10:56:02;1.00;;;0.90;;
1591;SDS011;789;51.612;7.510;2023-03-14T10:58:30;1.50;;;1.00;;
1591;SDS011;789;51.612;7.510;2023-03-14T11:01:07;1.50;;;1.00;;
1591;SDS011;789;51.612;7.510;2023-03-14T11:03:48;1.60;;;1.13;;
1591;SDS011;789;51.612;7.510;2023-03-14T11:06:22;1.40;;;1.10;;
1591;SDS011;789;51.612;7.510;2023-03-14T11:08:53;2.30;;;1.17;;
1591;SDS011;789;51.612;7.510;2023-03-14T11:11:23;2.57;;;1.30;;
1591;SDS011;789;51.612;7.510;2023-03-14T11:13:56;0.80;;;0.80;;
1591;SDS011;789;51.612;7.510;2023-03-14T11:16:31;1.20;;;0.83;;
1591;SDS011;789;51.612;7.510;2023-03-14T11:19:10;1.20;;;1.10;;
1591;SDS011;789;51.612;7.510;2023-03-14T11:21:51;1.50;;;0.90;;
1591;SDS011;789;51.612;7.510;2023-03-14T11:24:27;1.20;;;1.10;;
1591;SDS011;789;51.612;7.510;2023-03-14T11:27:03;0.83;;;0.83;;
1591;SDS011;789;51.612;7.510;2023-03-14T11:29:41;1.10;;;0.90;;
1591;SDS011;789;51.612;7.510;2023-03-14T11:32:13;0.70;;;0.70;;
1591;SDS011;789;51.612;7.510;2023-03-14T11:34:44;1.20;;;1.10;;
1591;SDS011;789;51.612;7.510;2023-03-14T11:37:23;1.83;;;0.97;;
1591;SDS011;789;51.612;7.510;2023-03-14T11:39:56;1.07;;;0.97;;
1591;SDS011;789;51.612;7.510;2023-03-14T11:42:31;0.70;;;0.70;;
1591;SDS011;789;51.612;7.510;2023-03-14T11:44:59;1.43;;;0.80;;
1591;SDS011;789;51.612;7.510;2023-03-14T11:47:28;0.80;;;0.80;;
1591;SDS011;789;51.612;7.510;2023-03-14T11:50:00;0.93;;;0.70;;
1591;SDS011;789;51.612;7.510;2023-03-14T11:52:32;1.10;;;0.90;;
1591;SDS011;789;51.612;7.510;2023-03-14T11:55:05;2.80;;;1.20;;
1591;SDS011;789;51.612;7.510;2023-03-14T11:57:36;2.90;;;1.00;;
1591;SDS011;789;51.612;7.510;2023-03-14T12:00:12;2.90;;;1.20;;
1591;SDS011;789;51.612;7.510;2023-03-14T12:02:44;2.77;;;1.03;;
1591;SDS011;789;51.612;7.510;2023-03-14T12:08:32;1.93;;;1.13;;
1591;SDS011;789;51.612;7.510;2023-03-14T12:11:08;1.23;;;0.83;;
1591;SDS011;789;51.612;7.510;2023-03-14T12:13:39;2.97;;;1.20;;
1591;SDS011;789;51.612;7.510;2023-03-14T12:16:10;1.80;;;1.20;;
1591;SDS011;789;51.612;7.510;2023-03-14T12:18:53;3.60;;;1.30;;
1591;SDS011;789;51.612;7.510;2023-03-14T12:21:20;3.13;;;1.80;;
1591;SDS011;789;51.612;7.510;2023-03-14T12:23:51;3.30;;;1.07;;
1591;SDS011;789;51.612;7.510;2023-03-14T12:26:20;4.30;;;1.53;;
1591;SDS011;789;51.612;7.510;2023-03-14T12:28:49;6.30;;;1.73;;
1591;SDS011;789;51.612;7.510;2023-03-14T12:31:35;3.70;;;1.60;;
1591;SDS011;789;51.612;7.510;2023-03-14T12:34:27;4.40;;;1.30;;
1591;SDS011;789;51.612;7.510;2023-03-14T12:37:01;8.17;;;2.33;;
1591;SDS011;789;51.612;7.510;2023-03-14T12:39:43;4.23;;;1.60;;
1591;SDS011;789;51.612;7.510;2023-03-14T12:42:17;2.90;;;1.43;;
1591;SDS011;789;51.612;7.510;2023-03-14T12:44:49;6.43;;;1.70;;
1591;SDS011;789;51.612;7.510;2023-03-14T12:50:15;5.13;;;1.13;;
1591;SDS011;789;51.612;7.510;2023-03-14T12:52:50;6.80;;;1.80;;
1591;SDS011;789;51.612;7.510;2023-03-14T12:55:37;5.20;;;1.83;;
1591;SDS011;789;51.612;7.510;2023-03-14T12:58:10;5.10;;;1.50;;
1591;SDS011;789;51.612;7.510;2023-03-14T13:00:41;6.10;;;1.70;;
1591;SDS011;789;51.612;7.510;2023-03-14T13:03:17;8.93;;;2.43;;
1591;SDS011;789;51.612;7.510;2023-03-14T13:05:54;10.10;;;2.80;;
1591;SDS011;789;51.612;7.510;2023-03-14T13:08:35;9.97;;;3.33;;
1591;SDS011;789;51.612;7.510;2023-03-14T13:11:05;12.57;;;2.97;;
1591;SDS011;789;51.612;7.510;2023-03-14T13:13:35;10.13;;;2.97;;
1591;SDS011;789;51.612;7.510;2023-03-14T13:16:09;14.33;;;2.83;;
1591;SDS011;789;51.612;7.510;2023-03-14T13:18:41;13.77;;;3.37;;
1591;SDS011;789;51.612;7.510;2023-03-14T13:21:10;15.07;;;2.73;;
1591;SDS011;789;51.612;7.510;2023-03-14T13:23:39;8.70;;;2.80;;
1591;SDS011;789;51.612;7.510;2023-03-14T13:26:11;12.70;;;3.27;;
1591;SDS011;789;51.612;7.510;2023-03-14T13:28:40;8.80;;;3.03;;
1591;SDS011;789;51.612;7.510;2023-03-14T13:31:15;15.70;;;3.50;;
1591;SDS011;789;51.612;7.510;2023-03-14T13:33:56;10.00;;;2.77;;
1591;SDS011;789;51.612;7.510;2023-03-14T13:36:24;11.33;;;2.93;;
1591;SDS011;789;51.612;7.510;2023-03-14T13:38:55;13.03;;;3.67;;
1591;SDS011;789;51.612;7.510;2023-03-14T13:41:25;15.27;;;3.50;;
1591;SDS011;789;51.612;7.510;2023-03-14T13:43:55;22.93;;;3.60;;
1591;SDS011;789;51.612;7.510;2023-03-14T13:46:28;13.57;;;3.90;;
1591;SDS011;789;51.612;7.510;2023-03-14T13:48:56;13.70;;;3.00;;
1591;SDS011;789;51.612;7.510;2023-03-14T13:51:26;11.20;;;2.83;;
1591;SDS011;789;51.612;7.510;2023-03-14T13:53:56;15.93;;;3.43;;
1591;SDS011;789;51.612;7.510;2023-03-14T13:56:26;12.40;;;2.83;;
1591;SDS011;789;51.612;7.510;2023-03-14T13:58:53;11.77;;;3.07;;
1591;SDS011;789;51.612;7.510;2023-03-14T14:01:22;14.00;;;2.70;;
1591;SDS011;789;51.612;7.510;2023-03-14T14:03:51;11.67;;;2.67;;
1591;SDS011;789;51.612;7.510;2023-03-14T14:06:22;14.60;;;3.63;;
1591;SDS011;789;51.612;7.510;2023-03-14T14:08:53;17.37;;;3.20;;
1591;SDS011;789;51.612;7.510;2023-03-14T14:11:22;13.43;;;3.10;;
1591;SDS011;789;51.612;7.510;2023-03-14T14:14:01;10.83;;;3.03;;
1591;SDS011;789;51.612;7.510;2023-03-14T14:16:29;9.27;;;2.40;;
1591;SDS011;789;51.612;7.510;2023-03-14T14:18:57;13.23;;;3.17;;
1591;SDS011;789;51.612;7.510;2023-03-14T14:21:25;10.00;;;2.60;;
1591;SDS011;789;51.612;7.510;2023-03-14T14:23:52;13.40;;;2.80;;
1591;SDS011;789;51.612;7.510;2023-03-14T14:26:20;13.47;;;2.80;;
1591;SDS011;789;51.612;7.510;2023-03-14T14:28:48;12.83;;;3.30;;
1591;SDS011;789;51.612;7.510;2023-03-14T14:31:27;16.27;;;3.07;;
1591;SDS011;789;51.612;7.510;2023-03-14T14:33:57;10.00;;;3.13;;
1591;SDS011;789;51.612;7.510;2023-03-14T14:36:26;11.77;;;3.20;;
1591;SDS011;789;51.612;7.510;2023-03-14T14:38:57;15.73;;;3.03;;
1591;SDS011;789;51.612;7.510;2023-03-14T14:41:30;14.73;;;3.03;;
1591;SDS011;789;51.612;7.510;2023-03-14T14:44:01;9.40;;;3.13;;
1591;SDS011;789;51.612;7.510;2023-03-14T14:46:30;11.40;;;3.00;;
1591;SDS011;789;51.612;7.510;2023-03-14T14:49:02;10.13;;;2.93;;
1591;SDS011;789;51.612;7.510;2023-03-14T14:51:32;12.87;;;2.97;;
1591;SDS011;789;51.612;7.510;2023-03-14T14:54:11;11.20;;;2.70;;
1591;SDS011;789;51.612;7.510;2023-03-14T14:56:40;10.27;;;2.77;;
1591;SDS011;789;51.612;7.510;2023-03-14T14:59:17;7.30;;;2.10;;
1591;SDS011;789;51.612;7.510;2023-03-14T15:01:47;11.20;;;3.10;;
1591;SDS011;789;51.612;7.510;2023-03-14T15:04:16;8.60;;;2.40;;
1591;SDS011;789;51.612;7.510;2023-03-14T15:06:43;9.03;;;2.33;;
1591;SDS011;789;51.612;7.510;2023-03-14T15:09:13;8.50;;;2.87;;
1591;SDS011;789;51.612;7.510;2023-03-14T15:11:41;11.67;;;2.60;;
1591;SDS011;789;51.612;7.510;2023-03-14T15:14:09;7.90;;;1.93;;
1591;SDS011;789;51.612;7.510;2023-03-14T15:16:36;7.30;;;2.60;;
1591;SDS011;789;51.612;7.510;2023-03-14T15:19:08;8.90;;;2.50;;
1591;SDS011;789;51.612;7.510;2023-03-14T15:21:38;8.83;;;3.00;;
1591;SDS011;789;51.612;7.510;2023-03-14T15:24:05;10.57;;;3.30;;
1591;SDS011;789;51.612;7.510;2023-03-14T15:26:35;9.20;;;2.37;;
1591;SDS011;789;51.612;7.510;2023-03-14T15:29:02;5.60;;;1.90;;
1591;SDS011;789;51.612;7.510;2023-03-14T15:31:30;15.47;;;2.33;;
1591;SDS011;789;51.612;7.510;2023-03-14T15:33:57;12.00;;;2.17;;
1591;SDS011;789;51.612;7.510;2023-03-14T15:36:25;8.07;;;1.97;;
1591;SDS011;789;51.612;7.510;2023-03-14T15:38:53;6.00;;;2.30;;
1591;SDS011;789;51.612;7.510;2023-03-14T15:41:21;6.73;;;2.10;;
1591;SDS011;789;51.612;7.510;2023-03-14T15:43:48;6.23;;;1.90;;
1591;SDS011;789;51.612;7.510;2023-03-14T15:46:15;8.80;;;1.90;;
1591;SDS011;789;51.612;7.510;2023-03-14T15:48:45;11.90;;;2.30;;